Time;durP1;ratioP1;P1;durP2;ratioP2;P2;SDS_P1;SDS_P2;PMS_P1;PMS_P2;Temp;Humidity;BMP_temperature;BMP_pressure;BME280_temperature;BME280_humidity;BME280_pressure;Samples;Min_cycle;Max_cycle;Signal;HPM_P1;HPM_P2
2022/01/23 00:01:36;;;;;;;14.40;7.82;;;;;;;-3.33;78.50;95217.53;4991803;28;20260;-81
2022/01/23 00:04:03;;;;;;;13.85;7.72;;;;;;;-3.34;78.43;95219.28;4991427;28;20284;-81
2022/01/23 00:06:30;;;;;;;12.40;8.13;;;;;;;-3.28;78.22;95221.66;4991165;28;20212;-82
2022/01/23 00:08:56;;;;;;;12.98;7.88;;;;;;;-3.28;78.06;95228.53;4991010;28;20225;-81
2022/01/23 00:11:26;;;;;;;18.17;8.40;;;;;;;-3.24;77.89;95230.13;4991025;28;20201;-81
2022/01/23 00:19:23;;;;;;;7.00;4.85;;;;;;;-3.30;78.19;95231.13;4970856;28;20577;-81
2022/01/23 00:21:53;;;;;;;14.07;7.20;;;;;;;-3.37;78.61;95231.34;5034727;28;20257;-83
2022/01/23 00:32:34;;;;;;;7.03;5.32;;;;;;;-3.35;79.89;95240.66;5035132;28;20237;-79
2022/01/23 00:35:03;;;;;;;6.72;4.90;;;;;;;-3.34;79.24;95229.53;5032941;28;20199;-82
2022/01/23 00:37:30;;;;;;;8.70;5.25;;;;;;;-3.32;79.69;95226.91;5033482;28;20206;-82
2022/01/23 00:39:56;;;;;;;5.88;4.95;;;;;;;-3.23;79.51;95239.50;5033446;28;20196;-81
2022/01/23 00:42:23;;;;;;;8.18;5.78;;;;;;;-3.19;79.29;95230.84;5035907;28;20209;-81
2022/01/23 00:44:59;;;;;;;5.88;4.50;;;;;;;-3.10;78.85;95233.19;5033232;28;20728;-82
2022/01/23 00:47:26;;;;;;;10.02;5.63;;;;;;;-3.00;78.14;95234.63;5034242;28;20280;-80
2022/01/23 00:49:53;;;;;;;13.50;7.90;;;;;;;-2.94;77.95;95233.59;5032560;28;20562;-82
2022/01/23 00:52:20;;;;;;;9.93;5.75;;;;;;;-3.05;77.74;95243.31;5035382;28;20210;-83
2022/01/23 00:54:47;;;;;;;7.88;5.22;;;;;;;-3.10;77.89;95245.19;5034085;28;20207;-82
2022/01/23 00:57:14;;;;;;;8.27;4.70;;;;;;;-3.10;78.53;95234.91;5034076;28;20196;-80
2022/01/23 00:59:40;;;;;;;5.63;4.80;;;;;;;-3.01;78.95;95242.34;5032027;28;20206;-81
2022/01/23 01:02:09;;;;;;;12.07;6.63;;;;;;;-2.92;79.09;95242.09;5031900;28;20591;-79
2022/01/23 01:04:36;;;;;;;14.82;6.10;;;;;;;-2.90;78.92;95233.47;5032086;28;20219;-81
2022/01/23 01:07:02;;;;;;;7.95;5.80;;;;;;;-2.77;78.79;95238.28;5031930;28;20203;-81
2022/01/23 01:09:30;;;;;;;6.20;5.28;;;;;;;-2.79;78.95;95240.91;4997477;28;20211;-81
2022/01/23 01:12:01;;;;;;;5.05;4.40;;;;;;;-2.87;79.90;95241.13;5031803;28;20207;-80
2022/01/23 01:14:43;;;;;;;11.27;6.93;;;;;;;-2.90;80.07;95232.63;5032886;28;20204;-80
2022/01/23 01:17:20;;;;;;;5.63;4.45;;;;;;;-2.88;80.75;95236.03;5032518;28;20672;-82
2022/01/23 01:30:56;;;;;;;14.05;4.80;;;;;;;-3.13;81.01;95236.69;5035407;28;20748;-81
2022/01/23 01:33:35;;;;;;;7.40;4.57;;;;;;;-3.10;81.72;95235.75;5037867;28;20199;-81
2022/01/23 01:36:15;;;;;;;11.65;5.43;;;;;;;-3.19;81.83;95239.38;5037031;28;20199;-82
2022/01/23 01:38:42;;;;;;;6.20;4.70;;;;;;;-3.23;82.58;95240.34;5036735;28;20203;-81
2022/01/23 01:41:09;;;;;;;7.22;5.20;;;;;;;-3.18;83.09;95235.09;5035330;28;20211;-80
2022/01/23 01:43:37;;;;;;;6.57;5.25;;;;;;;-3.20;82.80;95242.81;5035724;28;20207;-81
2022/01/23 01:46:04;;;;;;;8.30;5.70;;;;;;;-3.19;83.26;95252.22;5035464;28;20677;-83
2022/01/23 01:48:33;;;;;;;8.50;5.90;;;;;;;-3.24;83.13;95254.06;5035785;28;20223;-82
2022/01/23 01:51:00;;;;;;;7.95;5.30;;;;;;;-3.17;83.89;95245.34;5036223;28;20195;-81
2022/01/23 01:53:28;;;;;;;8.07;5.75;;;;;;;-3.08;82.55;95248.53;5001376;28;20199;-82
2022/01/23 01:55:57;;;;;;;7.20;5.95;;;;;;;-3.02;83.28;95249.22;5036205;28;20674;-82
2022/01/23 01:59:09;;;;;;;5.70;5.20;;;;;;;-3.03;83.34;95251.81;5035649;28;20218;-82
2022/01/23 02:09:47;;;;;;;7.95;5.78;;;;;;;-3.22;82.84;95254.84;4974830;28;20201;-81
2022/01/23 02:12:44;;;;;;;6.43;5.07;;;;;;;-3.21;83.02;95248.84;4975266;28;20501;-80
2022/01/23 02:15:28;;;;;;;7.65;5.80;;;;;;;-3.21;82.97;95248.84;4974132;28;20205;-82
2022/01/23 02:18:02;;;;;;;13.60;6.88;;;;;;;-3.20;83.04;95252.25;4973855;28;20287;-82
2022/01/23 02:23:31;;;;;;;7.95;5.72;;;;;;;-3.33;83.38;95250.91;4974883;28;20199;-83
2022/01/23 02:50:48;;;;;;;10.70;6.03;;;;;;;-3.30;81.55;95268.78;5034001;28;20197;-81
2022/01/23 02:53:36;;;;;;;8.70;5.65;;;;;;;-3.40;81.50;95270.72;5034323;28;20262;-81
2022/01/23 02:56:07;;;;;;;9.38;6.30;;;;;;;-3.38;81.46;95278.38;5034291;28;20208;-82
2022/01/23 02:58:46;;;;;;;16.30;6.88;;;;;;;-3.44;81.10;95277.66;5034645;28;20289;-82
2022/01/23 03:01:16;;;;;;;7.28;6.40;;;;;;;-3.40;80.70;95283.56;5034460;28;20199;-82
2022/01/23 03:03:46;;;;;;;8.57;6.20;;;;;;;-3.40;80.18;95278.44;5034293;28;20253;-82
2022/01/23 03:06:35;;;;;;;8.75;5.90;;;;;;;-3.38;80.03;95276.66;5034999;28;20207;-81
2022/01/23 03:12:07;;;;;;;12.90;7.10;;;;;;;-3.36;79.91;95274.91;5034292;28;20274;-82
2022/01/23 03:14:47;;;;;;;9.90;5.30;;;;;;;-3.48;79.57;95275.19;4991843;28;20207;-82
2022/01/23 03:28:20;;;;;;;11.65;7.75;;;;;;;-3.51;80.20;95301.75;4973010;28;20225;-81
2022/01/23 03:30:54;;;;;;;7.53;5.40;;;;;;;-3.51;80.01;95298.34;4971951;28;20221;-81
2022/01/23 03:33:22;;;;;;;10.63;6.40;;;;;;;-3.59;79.58;95295.13;4972113;28;20287;-82
2022/01/23 03:35:48;;;;;;;10.43;5.88;;;;;;;-3.65;79.50;95302.97;4924345;28;20386;-82
2022/01/23 03:38:15;;;;;;;9.18;6.70;;;;;;;-3.56;81.81;95300.19;4972246;28;20201;-82
2022/01/23 03:40:44;;;;;;;12.68;6.28;;;;;;;-3.56;80.31;95305.31;4972606;28;20611;-82
2022/01/23 03:43:14;;;;;;;10.80;6.18;;;;;;;-3.57;79.86;95309.59;4972079;28;20618;-82
2022/01/23 03:46:09;;;;;;;9.77;6.70;;;;;;;-3.56;79.29;95301.03;4972328;28;20288;-81
2022/01/23 03:51:20;;;;;;;9.73;6.05;;;;;;;-3.56;79.10;95298.47;4972286;28;20205;-82
2022/01/23 03:53:47;;;;;;;8.50;5.80;;;;;;;-3.56;78.70;95307.88;4972211;28;20201;-82
2022/01/23 03:56:18;;;;;;;6.63;4.97;;;;;;;-3.61;78.94;95302.03;4892540;28;20664;-81
2022/01/23 03:58:45;;;;;;;13.35;6.00;;;;;;;-3.69;79.08;95299.66;4926327;28;20300;-81
2022/01/23 04:01:12;;;;;;;12.40;6.75;;;;;;;-3.60;78.57;95301.13;4972845;28;20208;-82
2022/01/23 04:03:39;;;;;;;9.57;6.13;;;;;;;-3.72;78.44;95306.56;4971687;28;20273;-81
2022/01/23 04:06:06;;;;;;;17.33;8.18;;;;;;;-3.77;79.99;95304.94;5018625;28;20199;-82
2022/01/23 04:08:33;;;;;;;10.13;6.38;;;;;;;-3.79;79.97;95303.28;5035211;28;20237;-82
2022/01/23 04:11:01;;;;;;;12.23;7.78;;;;;;;-3.77;80.05;95310.06;5031958;28;20425;-81
2022/01/23 04:13:30;;;;;;;8.70;5.82;;;;;;;-3.79;80.35;95314.38;5032378;28;20246;-80
2022/01/23 04:16:12;;;;;;;14.02;7.20;;;;;;;-3.71;80.50;95321.91;4999067;28;20565;-81
2022/01/23 04:19:08;;;;;;;6.82;5.40;;;;;;;-3.73;79.78;95322.84;5033513;28;20231;-81
2022/01/23 04:32:48;;;;;;;9.45;6.32;;;;;;;-3.73;79.75;95315.13;4971707;28;20360;-82
2022/01/23 04:35:43;;;;;;;12.55;6.00;;;;;;;-3.75;79.60;95321.16;4972315;28;20201;-82
2022/01/23 04:46:56;;;;;;;8.70;6.82;;;;;;;-3.69;78.66;95319.31;4952372;28;20236;-80
2022/01/23 05:00:23;;;;;;;19.00;9.20;;;;;;;-3.59;77.63;95323.34;4902166;29;20267;-82
2022/01/23 05:03:33;;;;;;;14.82;8.02;;;;;;;-3.63;77.88;95326.84;4956425;29;20213;-82
2022/01/23 05:05:58;;;;;;;17.52;10.43;;;;;;;-3.64;78.30;95336.28;4955529;29;20238;-82
2022/01/23 05:08:27;;;;;;;24.65;10.15;;;;;;;-3.65;77.54;95344.84;4955288;29;20229;-82
2022/01/23 05:10:58;;;;;;;23.88;9.60;;;;;;;-3.70;77.50;95340.69;4955654;29;20206;-82
2022/01/23 05:13:26;;;;;;;14.05;7.65;;;;;;;-3.71;76.90;95359.53;4955755;29;20212;-81
2022/01/23 05:15:53;;;;;;;17.38;10.10;;;;;;;-3.69;77.46;95360.34;4955420;29;20202;-82
2022/01/23 05:18:21;;;;;;;11.63;6.65;;;;;;;-3.69;77.64;95371.44;4955451;29;20573;-81
2022/01/23 05:20:55;;;;;;;6.35;5.30;;;;;;;-3.69;77.27;95368.88;4966993;28;20216;-82
2022/01/23 05:23:22;;;;;;;8.85;5.90;;;;;;;-3.60;77.11;95372.94;4976896;28;20213;-82
2022/01/23 05:25:49;;;;;;;7.10;6.15;;;;;;;-3.54;76.33;95371.06;4943149;28;20204;-81
2022/01/23 05:28:16;;;;;;;11.15;7.30;;;;;;;-3.48;75.84;95378.63;5012855;28;20227;-80
2022/01/23 05:30:43;;;;;;;9.65;5.97;;;;;;;-3.43;75.56;95373.41;5035635;28;20223;-82
2022/01/23 05:33:10;;;;;;;7.28;5.55;;;;;;;-3.46;75.39;95371.78;5036549;28;20210;-80
2022/01/23 05:35:38;;;;;;;16.67;9.60;;;;;;;-3.61;75.34;95364.41;5036308;28;20210;-80
2022/01/23 05:38:05;;;;;;;11.55;7.75;;;;;;;-3.50;75.61;95369.28;5035633;28;20203;-81
2022/01/23 05:40:33;;;;;;;8.95;6.65;;;;;;;-3.47;74.87;95364.94;5038043;28;20204;-82
2022/01/23 05:42:59;;;;;;;15.20;8.27;;;;;;;-3.48;74.91;95364.97;5037024;28;20238;-82
2022/01/23 05:45:26;;;;;;;20.15;11.60;;;;;;;-3.54;74.95;95367.66;5035228;28;20199;-81
2022/01/23 05:47:53;;;;;;;45.95;20.75;;;;;;;-3.62;75.27;95361.88;5017341;28;20204;-81
2022/01/23 05:50:20;;;;;;;39.40;18.73;;;;;;;-3.62;74.96;95364.44;5036118;28;20227;-82
2022/01/23 05:52:48;;;;;;;19.23;10.27;;;;;;;-3.59;75.20;95364.38;5035920;28;20673;-82
2022/01/23 05:55:15;;;;;;;10.98;7.30;;;;;;;-3.65;75.27;95369.66;5036049;28;20195;-82
2022/01/23 05:57:42;;;;;;;18.83;9.68;;;;;;;-3.70;75.19;95362.06;5036428;28;20203;-82
2022/01/23 06:00:11;;;;;;;14.73;9.00;;;;;;;-3.78;75.48;95372.47;5036732;28;20211;-82
2022/01/23 06:02:37;;;;;;;11.43;7.97;;;;;;;-3.70;75.63;95376.59;4986032;28;20680;-82
2022/01/23 06:05:05;;;;;;;11.85;6.65;;;;;;;-3.64;75.26;95386.72;5036447;28;20651;-82
2022/01/23 06:07:32;;;;;;;9.73;6.15;;;;;;;-3.71;75.44;95383.44;5036991;28;20199;-82
2022/01/23 06:10:00;;;;;;;9.43;7.18;;;;;;;-3.73;75.02;95384.38;5036749;28;20215;-83
2022/01/23 06:12:28;;;;;;;11.15;6.72;;;;;;;-3.68;74.94;95380.81;5036158;28;20199;-82
2022/01/23 06:14:54;;;;;;;16.80;8.73;;;;;;;-3.70;74.66;95384.28;5036147;28;20211;-82
2022/01/23 06:17:21;;;;;;;12.07;6.90;;;;;;;-3.71;75.12;95391.16;5037400;28;20202;-82
2022/01/23 06:19:48;;;;;;;13.32;8.38;;;;;;;-3.69;74.80;95394.50;5036224;28;20211;-81
2022/01/23 06:22:15;;;;;;;10.27;7.30;;;;;;;-3.62;74.71;95396.06;5036535;28;20200;-81
2022/01/23 06:24:46;;;;;;;18.20;11.13;;;;;;;-3.46;75.10;95402.56;5036019;28;20183;-82
2022/01/23 06:27:15;;;;;;;25.55;12.02;;;;;;;-3.32;73.47;95412.50;4969916;28;20192;-80
2022/01/23 06:29:44;;;;;;;20.63;10.63;;;;;;;-3.19;73.21;95413.03;5001231;28;20227;-80
2022/01/23 06:32:12;;;;;;;24.00;13.25;;;;;;;-3.19;72.41;95413.88;5036333;28;20238;-82
2022/01/23 06:34:40;;;;;;;34.65;16.85;;;;;;;-3.01;72.21;95414.34;5035874;28;20214;-80
2022/01/23 06:37:06;;;;;;;32.70;16.73;;;;;;;-3.13;71.81;95411.19;5036069;28;20242;-81
2022/01/23 06:39:33;;;;;;;29.17;16.25;;;;;;;-3.05;71.81;95412.72;5035950;28;20210;-81
2022/01/23 06:42:01;;;;;;;25.33;12.68;;;;;;;-2.95;72.25;95403.91;5035395;28;20187;-81
2022/01/23 06:44:29;;;;;;;18.52;9.05;;;;;;;-2.77;71.55;95400.91;5035615;28;20222;-77
2022/01/23 06:46:56;;;;;;;15.45;9.63;;;;;;;-2.76;71.03;95394.88;5035391;28;20198;-86
2022/01/23 06:49:23;;;;;;;16.95;11.70;;;;;;;-2.57;71.08;95401.25;5034665;28;20948;-78
2022/01/23 06:51:51;;;;;;;20.80;13.93;;;;;;;-2.50;70.16;95400.19;5037553;28;20199;-81
2022/01/23 06:54:18;;;;;;;19.55;12.13;;;;;;;-2.41;70.23;95393.97;5038214;28;20265;-81
2022/01/23 06:56:45;;;;;;;17.60;10.40;;;;;;;-2.51;69.05;95398.53;5040640;28;20278;-80
2022/01/23 06:59:12;;;;;;;16.13;11.07;;;;;;;-2.68;69.82;95395.53;5001700;28;20257;-78
2022/01/23 07:01:40;;;;;;;15.80;12.00;;;;;;;-2.72;70.69;95390.50;5035932;28;20203;-80
2022/01/23 07:04:07;;;;;;;9.48;6.82;;;;;;;-2.74;70.66;95390.56;5036057;28;20211;-80
2022/01/23 07:06:34;;;;;;;11.23;7.10;;;;;;;-2.71;70.94;95393.03;5016356;28;20542;-79
2022/01/23 07:09:01;;;;;;;13.23;8.32;;;;;;;-2.59;71.05;95395.31;5034977;28;20229;-79
2022/01/23 07:11:28;;;;;;;20.05;12.18;;;;;;;-2.50;70.72;95397.63;5035935;28;20665;-78
2022/01/23 07:13:55;;;;;;;35.13;15.68;;;;;;;-2.44;70.41;95403.50;5034655;28;20211;-78
2022/01/23 07:16:22;;;;;;;18.35;12.23;;;;;;;-2.41;70.79;95408.53;5034820;28;20215;-77
2022/01/23 07:18:50;;;;;;;25.30;14.68;;;;;;;-2.38;71.12;95400.75;5007369;28;20206;-80
2022/01/23 07:21:17;;;;;;;38.40;21.20;;;;;;;-2.37;71.00;95410.16;5019711;28;20210;-78
2022/01/23 07:23:50;;;;;;;40.58;22.00;;;;;;;-2.42;70.80;95414.56;5064059;28;20272;-78
2022/01/23 07:26:18;;;;;;;26.15;15.55;;;;;;;-2.37;70.90;95416.13;5074383;28;20621;-78
2022/01/23 07:28:46;;;;;;;21.10;13.32;;;;;;;-2.42;71.03;95412.00;5074447;28;20218;-81
2022/01/23 07:31:30;;;;;;;14.77;10.18;;;;;;;-2.47;70.78;95406.97;5074213;28;20222;-78
2022/01/23 07:34:00;;;;;;;10.50;7.85;;;;;;;-2.66;71.48;95410.91;5074329;28;20202;-79
2022/01/23 07:36:27;;;;;;;24.30;14.48;;;;;;;-2.73;71.84;95404.22;5074879;28;20232;-78
2022/01/23 07:38:53;;;;;;;17.70;11.27;;;;;;;-2.67;72.63;95409.22;5039359;28;20228;-76
2022/01/23 07:41:21;;;;;;;21.27;11.93;;;;;;;-2.63;73.31;95406.53;5068754;28;20218;-77
2022/01/23 07:43:47;;;;;;;13.18;9.05;;;;;;;-2.63;72.67;95406.53;5054045;28;20194;-78
2022/01/23 07:46:14;;;;;;;19.20;10.95;;;;;;;-2.62;72.86;95408.22;5054294;28;20199;-77
2022/01/23 07:48:41;;;;;;;18.30;9.80;;;;;;;-2.66;72.48;95401.47;5053487;28;20198;-79
2022/01/23 07:51:10;;;;;;;17.65;10.98;;;;;;;-2.62;72.81;95403.06;5053780;28;20210;-78
2022/01/23 07:53:36;;;;;;;14.32;9.10;;;;;;;-2.40;73.62;95403.34;5002525;28;20552;-78
2022/01/23 07:56:04;;;;;;;14.88;10.35;;;;;;;-2.36;72.52;95409.25;5053927;28;20203;-77
2022/01/23 07:58:31;;;;;;;13.95;9.88;;;;;;;-2.18;71.68;95401.06;5053734;28;20289;-78
2022/01/23 08:00:58;;;;;;;14.88;9.75;;;;;;;-2.19;70.57;95407.94;5018394;28;20220;-77
2022/01/23 08:03:24;;;;;;;16.05;9.30;;;;;;;-2.17;70.85;95409.63;5053521;28;20207;-77
2022/01/23 08:05:51;;;;;;;19.33;11.30;;;;;;;-2.24;70.55;95398.66;5053889;28;20705;-79
2022/01/23 08:08:20;;;;;;;12.30;8.50;;;;;;;-2.36;69.86;95388.69;5054845;28;20187;-81
2022/01/23 08:10:46;;;;;;;14.88;7.57;;;;;;;-2.26;70.04;95405.59;5053834;28;20567;-78
2022/01/23 08:13:13;;;;;;;17.40;11.98;;;;;;;-2.21;70.43;95403.72;5002372;28;20653;-84
2022/01/23 08:15:40;;;;;;;14.60;10.00;;;;;;;-2.24;69.97;95411.53;5053637;28;20660;-78
2022/01/23 08:18:08;;;;;;;12.27;8.48;;;;;;;-2.28;70.44;95403.06;5054284;28;20189;-78
2022/01/23 08:20:35;;;;;;;10.43;7.90;;;;;;;-2.35;70.11;95400.66;5018453;28;20203;-78
2022/01/23 08:23:03;;;;;;;11.93;8.68;;;;;;;-2.38;69.62;95405.88;5033690;28;20199;-78
2022/01/23 08:25:32;;;;;;;11.25;8.35;;;;;;;-2.47;70.32;95406.97;5033747;28;20202;-76
2022/01/23 08:28:00;;;;;;;18.95;11.85;;;;;;;-2.33;71.73;95411.75;5033638;28;20199;-77
2022/01/23 08:30:27;;;;;;;18.10;12.77;;;;;;;-2.28;71.18;95409.91;5033117;28;20235;-77
2022/01/23 08:32:53;;;;;;;24.42;13.77;;;;;;;-2.18;70.66;95408.78;5033267;28;20203;-76
2022/01/23 08:35:21;;;;;;;13.65;7.68;;;;;;;-2.31;69.72;95413.41;5033863;28;20202;-78
2022/01/23 08:37:48;;;;;;;15.90;7.90;;;;;;;-2.39;70.51;95411.91;5033894;28;20204;-75
2022/01/23 08:40:22;;;;;;;16.17;9.20;;;;;;;-2.32;70.56;95416.00;5036871;28;20203;-78
2022/01/23 08:42:52;;;;;;;17.13;11.90;;;;;;;-2.22;70.73;95420.03;5054312;28;20686;-77
2022/01/23 08:45:19;;;;;;;33.70;12.07;;;;;;;-2.09;70.58;95412.81;5059515;28;20662;-78
2022/01/23 08:47:47;;;;;;;17.05;11.05;;;;;;;-1.96;70.04;95412.44;5056488;28;20211;-75
2022/01/23 08:50:14;;;;;;;16.75;10.23;;;;;;;-1.83;70.03;95419.81;5001747;28;20824;-76
2022/01/23 08:52:41;;;;;;;11.07;8.25;;;;;;;-1.77;68.22;95409.34;5054449;28;20201;-77
2022/01/23 08:55:09;;;;;;;15.65;9.90;;;;;;;-1.71;67.39;95414.34;5053730;28;20210;-77
2022/01/23 08:57:36;;;;;;;17.02;8.45;;;;;;;-1.88;67.31;95409.66;5054836;28;20206;-76
2022/01/23 09:00:06;;;;;;;8.75;7.28;;;;;;;-1.82;68.19;95411.22;5055661;28;20234;-78
2022/01/23 09:02:33;;;;;;;13.60;8.52;;;;;;;-1.91;67.52;95410.59;5055309;28;20210;-76
2022/01/23 09:05:00;;;;;;;11.60;8.60;;;;;;;-2.02;67.19;95404.91;5055934;28;20209;-79
2022/01/23 09:07:27;;;;;;;14.75;10.05;;;;;;;-1.97;67.97;95412.50;5055140;28;20210;-77
2022/01/23 09:10:01;;;;;;;12.25;9.98;;;;;;;-1.94;68.29;95407.25;5053301;28;20233;-79
2022/01/23 09:12:42;;;;;;;10.90;8.63;;;;;;;-2.04;68.59;95396.38;5005798;28;20209;-78
2022/01/23 09:15:11;;;;;;;13.25;9.05;;;;;;;-2.15;67.26;95407.84;5053836;28;20199;-77
2022/01/23 09:17:38;;;;;;;10.05;5.40;;;;;;;-2.30;67.88;95403.97;5053744;28;20215;-76
2022/01/23 09:20:05;;;;;;;16.67;9.25;;;;;;;-2.24;68.21;95409.78;5052854;28;20567;-77
2022/01/23 09:22:32;;;;;;;14.98;8.73;;;;;;;-2.17;68.74;95401.91;5052806;28;20211;-77
2022/01/23 09:25:00;;;;;;;12.32;7.03;;;;;;;-2.11;68.59;95405.16;5052563;28;20229;-77
2022/01/23 09:27:27;;;;;;;18.67;9.35;;;;;;;-2.05;68.31;95394.69;5052267;28;20226;-77
2022/01/23 09:29:55;;;;;;;24.55;13.30;;;;;;;-1.94;68.64;95392.69;5000910;28;20231;-76
2022/01/23 09:32:25;;;;;;;22.23;10.88;;;;;;;-1.89;68.45;95390.81;5017554;28;20226;-78
2022/01/23 09:34:52;;;;;;;12.32;8.55;;;;;;;-1.83;67.73;95391.53;5052084;28;20203;-81
2022/01/23 09:37:20;;;;;;;17.75;10.80;;;;;;;-1.78;67.86;95392.22;5052601;28;20261;-80
2022/01/23 09:39:51;;;;;;;14.30;8.10;;;;;;;-1.85;67.02;95383.00;5052157;28;20195;-78
2022/01/23 09:42:21;;;;;;;12.52;7.80;;;;;;;-1.85;67.26;95385.56;5040113;28;20253;-78
2022/01/23 09:44:52;;;;;;;12.30;8.98;;;;;;;-1.74;67.73;95388.66;5032416;28;20207;-78
2022/01/23 09:47:21;;;;;;;12.80;8.27;;;;;;;-1.62;67.43;95383.19;5035879;28;20654;-78
2022/01/23 09:49:50;;;;;;;20.73;9.80;;;;;;;-1.77;67.44;95383.63;5035497;28;20694;-79
2022/01/23 09:52:20;;;;;;;19.40;12.25;;;;;;;-1.78;66.73;95381.94;5035873;28;20441;-79
2022/01/23 09:54:56;;;;;;;19.77;11.63;;;;;;;-1.78;66.51;95387.09;5035705;28;20203;-79
2022/01/23 09:57:28;;;;;;;11.18;7.85;;;;;;;-1.85;67.39;95388.16;5035907;28;20238;-82
2022/01/23 09:59:58;;;;;;;13.60;8.88;;;;;;;-1.90;66.77;95378.84;5036049;28;20287;-79
2022/01/23 10:02:25;;;;;;;11.07;7.82;;;;;;;-1.76;66.93;95377.59;5036093;28;20202;-80
2022/01/23 10:04:55;;;;;;;9.63;6.95;;;;;;;-1.83;66.75;95370.94;5036704;28;20207;-78
2022/01/23 10:07:23;;;;;;;10.05;7.88;;;;;;;-1.72;66.57;95366.34;5036113;28;20540;-77
2022/01/23 10:09:54;;;;;;;12.05;7.90;;;;;;;-1.66;66.92;95361.84;5035838;28;20219;-77
2022/01/23 10:12:26;;;;;;;8.43;6.68;;;;;;;-1.63;66.39;95360.91;5035913;28;20269;-76
2022/01/23 10:14:54;;;;;;;9.57;5.63;;;;;;;-1.62;65.66;95360.88;5035456;28;20209;-78
2022/01/23 10:17:20;;;;;;;9.90;5.60;;;;;;;-1.66;65.53;95364.44;5035252;28;20199;-76
2022/01/23 10:19:50;;;;;;;7.55;6.82;;;;;;;-1.64;66.05;95354.09;5035499;28;20203;-76
2022/01/23 10:22:19;;;;;;;8.93;6.80;;;;;;;-1.53;66.07;95357.16;5001386;28;20650;-77
2022/01/23 10:24:46;;;;;;;6.70;5.80;;;;;;;-1.59;65.64;95357.34;5000463;28;20213;-76
2022/01/23 10:27:13;;;;;;;6.05;5.38;;;;;;;-1.54;65.47;95347.75;5035737;28;20209;-77
2022/01/23 10:29:46;;;;;;;12.98;7.32;;;;;;;-1.43;66.55;95337.16;5035111;28;20199;-77
2022/01/23 10:32:18;;;;;;;11.85;6.20;;;;;;;-1.37;64.93;95335.22;5034962;28;20318;-77
2022/01/23 10:34:48;;;;;;;8.80;6.65;;;;;;;-1.43;65.10;95339.75;5035258;28;20249;-77
2022/01/23 10:37:28;;;;;;;8.82;6.97;;;;;;;-1.43;64.69;95332.00;5034931;28;20286;-77
2022/01/23 10:39:56;;;;;;;10.40;6.50;;;;;;;-1.39;65.61;95339.59;5035328;28;20203;-77
2022/01/23 10:42:50;;;;;;;9.10;5.53;;;;;;;-1.53;65.18;95330.59;5046787;28;20585;-77
2022/01/23 10:48:36;;;;;;;11.15;7.57;;;;;;;-1.56;65.84;95327.22;5054857;28;20762;-78
2022/01/23 10:51:19;;;;;;;10.50;6.20;;;;;;;-1.54;65.81;95323.75;5054568;28;20230;-77
2022/01/23 10:54:11;;;;;;;11.25;7.47;;;;;;;-1.51;64.06;95329.66;5055197;28;20203;-78
2022/01/23 10:56:54;;;;;;;18.95;7.35;;;;;;;-1.41;64.14;95331.06;5054633;28;20653;-77
2022/01/23 10:59:21;;;;;;;11.55;8.30;;;;;;;-1.46;64.51;95322.63;5003288;28;20210;-77
2022/01/23 11:02:02;;;;;;;11.65;6.10;;;;;;;-1.31;64.52;95316.16;5054910;28;20202;-78
2022/01/23 11:04:29;;;;;;;13.82;8.82;;;;;;;-1.20;64.13;95313.25;5054661;28;20547;-77
2022/01/23 11:06:58;;;;;;;17.90;9.40;;;;;;;-1.15;63.42;95314.81;5003300;28;20207;-77
2022/01/23 11:09:29;;;;;;;7.70;6.55;;;;;;;-1.27;62.76;95308.28;5054157;28;20657;-77
2022/01/23 11:12:02;;;;;;;7.05;5.82;;;;;;;-1.30;62.65;95303.25;5055068;28;20222;-79
2022/01/23 11:17:23;;;;;;;12.88;6.95;;;;;;;-1.33;62.91;95305.94;5011222;28;20205;-77
2022/01/23 11:19:52;;;;;;;5.97;4.78;;;;;;;-1.18;62.03;95307.16;5054576;28;20276;-78
2022/01/23 11:22:20;;;;;;;6.88;5.45;;;;;;;-1.23;61.74;95301.31;5015891;28;20195;-74
2022/01/23 11:24:49;;;;;;;7.20;5.97;;;;;;;-1.28;61.83;95280.88;5034630;28;20200;-77
2022/01/23 11:27:18;;;;;;;10.18;7.57;;;;;;;-1.36;61.60;95292.31;5034770;28;20199;-77
2022/01/23 11:29:57;;;;;;;11.02;7.60;;;;;;;-1.37;62.05;95288.91;5034451;28;20535;-78
2022/01/23 11:32:28;;;;;;;6.68;5.30;;;;;;;-1.37;62.40;95276.03;5034679;28;20239;-77
2022/01/23 11:35:03;;;;;;;10.40;5.60;;;;;;;-1.46;61.70;95284.03;5034311;28;20293;-77
2022/01/23 11:37:30;;;;;;;19.58;6.72;;;;;;;-1.62;61.84;95278.53;5034085;28;20207;-78
2022/01/23 11:40:05;;;;;;;5.35;4.72;;;;;;;-1.65;62.34;95275.22;5034036;28;20217;-76
2022/01/23 11:53:51;;;;;;;10.95;7.28;;;;;;;-1.63;63.62;95276.03;5032616;28;20214;-77
2022/01/23 11:56:42;;;;;;;7.03;5.45;;;;;;;-1.66;63.23;95263.25;4975090;28;20215;-76
2022/01/23 11:59:25;;;;;;;6.72;4.43;;;;;;;-1.69;63.23;95263.34;5033558;28;20207;-77
2022/01/23 12:02:36;;;;;;;8.65;5.75;;;;;;;-1.63;62.79;95268.31;4983581;28;20204;-76
2022/01/23 12:05:24;;;;;;;15.00;6.57;;;;;;;-1.77;63.03;95255.00;5033642;28;20302;-76
2022/01/23 12:08:35;;;;;;;6.65;5.50;;;;;;;-1.71;63.53;95260.00;5033214;28;20227;-76
2022/01/23 12:17:41;;;;;;;11.75;7.50;;;;;;;-1.94;63.36;95253.81;5033421;28;20279;-78
2022/01/23 12:20:09;;;;;;;17.45;9.85;;;;;;;-1.92;64.15;95259.75;5033184;28;20685;-77
2022/01/23 12:22:42;;;;;;;9.20;6.13;;;;;;;-1.93;63.38;95250.38;5033763;28;20306;-77
2022/01/23 12:25:19;;;;;;;9.18;5.82;;;;;;;-1.96;63.21;95265.88;5033443;28;20207;-77
2022/01/23 12:27:46;;;;;;;6.40;5.43;;;;;;;-1.95;63.69;95253.88;5001158;28;20211;-77
2022/01/23 12:30:33;;;;;;;16.35;9.85;;;;;;;-1.88;63.96;95261.34;5033158;28;20207;-77
2022/01/23 12:33:20;;;;;;;11.85;5.85;;;;;;;-1.75;63.51;95258.38;5033174;28;20269;-77
2022/01/23 12:35:50;;;;;;;15.65;9.90;;;;;;;-1.68;63.25;95257.31;5033758;28;20203;-77
2022/01/23 12:38:17;;;;;;;31.40;11.18;;;;;;;-1.76;63.32;95260.09;5033322;28;20222;-77
2022/01/23 12:40:46;;;;;;;10.90;7.55;;;;;;;-1.81;63.49;95271.44;5033353;28;20204;-77
2022/01/23 12:43:16;;;;;;;13.07;8.35;;;;;;;-1.80;64.27;95260.25;4982425;28;20724;-77
2022/01/23 12:45:46;;;;;;;12.52;4.82;;;;;;;-1.84;63.59;95264.66;5032953;28;20269;-77
2022/01/23 12:48:45;;;;;;;11.38;6.32;;;;;;;-1.87;64.40;95269.91;4982793;28;20231;-77
2022/01/23 12:51:35;;;;;;;7.22;5.95;;;;;;;-1.82;64.51;95273.16;4933301;29;20737;-77
2022/01/23 12:54:38;;;;;;;11.25;8.55;;;;;;;-1.79;nan;95267.09;4932318;29;20584;-76
2022/01/23 12:57:09;;;;;;;8.63;5.03;;;;;;;-1.87;64.31;95270.75;4933931;29;20202;-76
2022/01/23 12:59:36;;;;;;;7.30;6.40;;;;;;;-1.91;63.99;95278.59;4933719;29;20191;-76
2022/01/23 13:02:11;;;;;;;6.80;5.05;;;;;;;-1.99;64.40;95273.69;4933878;29;20263;-77
2022/01/23 13:04:42;;;;;;;7.30;6.00;;;;;;;-2.00;65.61;95271.16;4933691;29;20704;-78
2022/01/23 13:07:23;;;;;;;7.43;5.55;;;;;;;-1.97;66.21;95274.50;4933439;29;20302;-77
2022/01/23 13:10:00;;;;;;;9.60;5.22;;;;;;;-1.99;65.57;95278.00;4873900;29;20379;-77
2022/01/23 13:15:24;;;;;;;23.38;11.93;;;;;;;-1.91;66.06;95274.28;4932701;29;20427;-76
2022/01/23 13:18:03;;;;;;;10.52;8.68;;;;;;;-1.93;66.34;95265.78;4933896;29;20684;-77
2022/01/23 13:31:56;;;;;;;31.58;18.02;;;;;;;-1.86;67.30;95274.16;4974736;28;20276;-76
2022/01/23 13:34:29;;;;;;;18.23;10.60;;;;;;;-1.87;66.69;95269.91;4975384;28;20201;-77
2022/01/23 13:37:05;;;;;;;21.05;12.73;;;;;;;-1.91;66.31;95263.16;4986373;28;20252;-77
2022/01/23 13:39:37;;;;;;;10.30;8.68;;;;;;;-1.92;66.24;95264.91;4995000;28;20204;-76
2022/01/23 13:42:19;;;;;;;14.27;9.77;;;;;;;-1.86;66.24;95256.16;4994634;28;20205;-76
2022/01/23 13:53:47;;;;;;;16.13;8.95;;;;;;;-2.09;68.54;95271.44;4994695;28;20263;-77
2022/01/23 13:59:09;;;;;;;8.20;5.93;;;;;;;-2.06;67.91;95274.75;4994807;28;20675;-78
2022/01/23 14:01:49;;;;;;;14.68;7.75;;;;;;;-2.12;67.69;95285.22;4994329;28;20291;-76
2022/01/23 14:04:17;;;;;;;9.38;6.40;;;;;;;-2.12;67.74;95267.22;4994593;28;20291;-76
2022/01/23 14:06:46;;;;;;;22.00;7.60;;;;;;;-2.09;67.94;95268.84;5016552;28;20230;-76
2022/01/23 14:09:15;;;;;;;6.57;5.97;;;;;;;-2.16;68.07;95275.91;5053388;28;20189;-77
2022/01/23 14:11:43;;;;;;;9.73;6.82;;;;;;;-2.21;68.39;95265.78;5055808;28;20623;-77
2022/01/23 14:14:19;;;;;;;8.15;6.28;;;;;;;-2.12;68.98;95264.66;5041563;28;20199;-77
2022/01/23 14:16:48;;;;;;;17.33;7.78;;;;;;;-2.16;69.66;95267.34;5035448;28;20206;-76
2022/01/23 14:19:17;;;;;;;13.90;6.85;;;;;;;-2.25;68.73;95260.78;5035455;28;20204;-76
2022/01/23 14:21:49;;;;;;;13.07;7.72;;;;;;;-2.22;68.83;95279.50;5045640;28;20294;-77
2022/01/23 14:24:24;;;;;;;10.00;6.68;;;;;;;-2.23;68.88;95271.84;5037279;28;20602;-77